createdAt,value
2019-03-16T00:01:08.189Z,99138.81
2019-03-16T00:03:38.874Z,99138.48
2019-03-16T00:06:09.684Z,99134.22
2019-03-16T00:08:40.359Z,99138.59
2019-03-16T00:11:11.126Z,99141.36
2019-03-16T00:13:41.761Z,99144.65
2019-03-16T00:16:12.919Z,99154.60
2019-03-16T00:18:43.952Z,99151.27
2019-03-16T00:21:14.725Z,99153.81
2019-03-16T00:23:45.364Z,99151.34
2019-03-16T00:26:19.161Z,99154.73
2019-03-16T00:28:51.736Z,99154.81
2019-03-16T00:31:22.475Z,99164.06
2019-03-16T00:33:53.101Z,99172.30
2019-03-16T00:36:23.810Z,99170.34
2019-03-16T00:38:54.479Z,99172.05
2019-03-16T00:41:27.888Z,99167.05
2019-03-16T00:44:00.550Z,99172.17
2019-03-16T00:46:31.616Z,99168.80
2019-03-16T00:49:04.037Z,99172.73
2019-03-16T00:51:36.847Z,99175.88
2019-03-16T00:54:07.764Z,99177.77
2019-03-16T00:56:41.701Z,99182.74
2019-03-16T00:59:12.520Z,99186.99
2019-03-16T01:01:43.726Z,99188.46
2019-03-16T01:04:14.388Z,99199.91
2019-03-16T01:06:45.126Z,99197.58
2019-03-16T01:09:15.863Z,99201.91
2019-03-16T01:11:46.535Z,99197.95
2019-03-16T01:14:17.596Z,99198.69
2019-03-16T01:16:48.740Z,99193.88
2019-03-16T01:19:19.340Z,99186.20
2019-03-16T01:21:50.554Z,99191.20
2019-03-16T01:24:21.188Z,99185.08
2019-03-16T01:26:52.262Z,99182.69
2019-03-16T01:29:23.202Z,99194.08
2019-03-16T01:31:54.319Z,99197.36
2019-03-16T01:34:25.370Z,99204.91
2019-03-16T01:36:56.503Z,99210.52
2019-03-16T01:39:27.695Z,99211.59
2019-03-16T01:41:58.384Z,99217.02
2019-03-16T01:44:29.020Z,99222.61
2019-03-16T01:46:59.747Z,99225.30
2019-03-16T01:49:30.448Z,99221.77
2019-03-16T01:52:01.384Z,99221.28
2019-03-16T01:54:32.574Z,99227.96
2019-03-16T01:57:03.808Z,99226.88
2019-03-16T01:59:34.756Z,99228.50
2019-03-16T02:02:05.399Z,99235.83
2019-03-16T02:04:36.451Z,99238.35
2019-03-16T02:07:07.175Z,99238.02
2019-03-16T02:09:38.109Z,99243.38
2019-03-16T02:12:08.864Z,99249.58
2019-03-16T02:14:39.942Z,99258.59
2019-03-16T02:17:10.693Z,99260.00
2019-03-16T02:19:44.624Z,99253.54
2019-03-16T02:22:15.294Z,99254.70
2019-03-16T02:24:45.987Z,99251.38
2019-03-16T02:27:16.911Z,99261.09
2019-03-16T02:29:47.560Z,99253.58
2019-03-16T02:32:18.613Z,99259.93
2019-03-16T02:34:49.926Z,99267.95
2019-03-16T02:37:20.612Z,99258.50
2019-03-16T02:39:51.648Z,99266.22
2019-03-16T02:42:22.273Z,99280.39
2019-03-16T02:44:54.656Z,99277.96
2019-03-16T02:47:25.408Z,99274.45
2019-03-16T02:49:56.543Z,99270.41
2019-03-16T02:52:27.315Z,99280.80
2019-03-16T02:54:58.125Z,99291.56
2019-03-16T02:57:28.777Z,99299.42
2019-03-16T02:59:59.400Z,99301.88
2019-03-16T03:02:30.406Z,99306.24
2019-03-16T03:05:01.168Z,99307.55
2019-03-16T03:07:32.203Z,99313.34
2019-03-16T03:10:03.169Z,99320.92
2019-03-16T03:12:34.173Z,99318.11
2019-03-16T03:15:07.438Z,99328.09
2019-03-16T03:17:38.215Z,99318.97
2019-03-16T03:20:09.150Z,99321.48
2019-03-16T03:22:40.239Z,99333.23
2019-03-16T03:25:11.034Z,99334.55
2019-03-16T03:27:41.738Z,99341.83
2019-03-16T03:30:12.385Z,99334.02
2019-03-16T03:32:43.913Z,99332.77
2019-03-16T03:35:14.697Z,99334.31
2019-03-16T03:37:45.438Z,99340.13
2019-03-16T03:40:16.253Z,99347.59
2019-03-16T03:42:47.361Z,99349.00
2019-03-16T03:45:20.806Z,99338.69
2019-03-16T03:47:52.762Z,99337.55
2019-03-16T03:50:23.649Z,99344.00
2019-03-16T03:52:54.323Z,99344.11
2019-03-16T03:55:24.873Z,99349.97
2019-03-16T03:57:56.015Z,99359.55
2019-03-16T04:00:26.699Z,99364.32
2019-03-16T04:02:57.370Z,99364.73
2019-03-16T04:05:28.098Z,99373.08
2019-03-16T04:07:58.745Z,99379.74
2019-03-16T04:10:29.400Z,99388.28
2019-03-16T04:13:00.109Z,99396.09
2019-03-16T04:15:30.770Z,99396.77
2019-03-16T04:18:01.407Z,99398.66
2019-03-16T04:20:32.071Z,99407.71
2019-03-16T04:23:02.747Z,99406.02
2019-03-16T04:25:34.000Z,99407.73
2019-03-16T04:28:04.731Z,99415.35
2019-03-16T04:30:35.449Z,99410.28
2019-03-16T04:33:06.205Z,99418.66
2019-03-16T04:35:36.838Z,99422.57
2019-03-16T04:38:07.530Z,99430.59
2019-03-16T04:40:38.762Z,99420.38
2019-03-16T04:43:09.491Z,99429.73
2019-03-16T04:45:41.961Z,99421.58
2019-03-16T04:48:15.093Z,99423.52
2019-03-16T04:50:46.022Z,99428.40
2019-03-16T04:53:17.098Z,99420.64
2019-03-16T04:55:47.834Z,99426.52
2019-03-16T04:58:18.583Z,99417.22
2019-03-16T05:00:49.403Z,99420.01
2019-03-16T05:03:24.338Z,99420.01
2019-03-16T05:05:55.360Z,99426.20
2019-03-16T05:08:26.087Z,99417.82
2019-03-16T05:10:57.176Z,99427.84
2019-03-16T05:13:29.449Z,99436.04
2019-03-16T05:16:01.615Z,99445.11
2019-03-16T05:18:32.313Z,99445.50
2019-03-16T05:21:05.061Z,99449.02
2019-03-16T05:23:37.371Z,99451.31
2019-03-16T05:26:08.269Z,99452.78
2019-03-16T05:28:40.364Z,99463.02
2019-03-16T05:31:11.024Z,99461.26
2019-03-16T05:33:41.754Z,99464.81
2019-03-16T05:36:18.777Z,99467.19
2019-03-16T05:38:50.011Z,99485.41
2019-03-16T05:41:23.402Z,99479.20
2019-03-16T05:43:54.497Z,99483.88
2019-03-16T05:46:26.477Z,99486.99
2019-03-16T05:48:59.841Z,99490.91
2019-03-16T05:51:31.155Z,99486.44
2019-03-16T05:54:06.191Z,99501.78
2019-03-16T05:56:37.002Z,99503.33
2019-03-16T05:59:09.330Z,99499.91
2019-03-16T06:01:41.642Z,99487.48
2019-03-16T06:04:14.341Z,99496.57
2019-03-16T06:06:51.617Z,99496.83
2019-03-16T06:09:22.751Z,99499.51
2019-03-16T06:11:54.704Z,99508.14
2019-03-16T06:14:25.403Z,99508.98
2019-03-16T06:16:56.351Z,99514.98
2019-03-16T06:19:28.433Z,99511.64
2019-03-16T06:22:01.977Z,99521.75
2019-03-16T06:24:35.313Z,99528.17
2019-03-16T06:27:08.504Z,99529.62
2019-03-16T06:29:41.515Z,99533.48
2019-03-16T06:32:14.162Z,99536.36
2019-03-16T06:34:46.394Z,99542.45
2019-03-16T06:37:21.286Z,99543.37
2019-03-16T06:39:52.066Z,99541.64
2019-03-16T06:42:24.057Z,99540.69
2019-03-16T06:44:57.322Z,99544.22
2019-03-16T06:47:32.422Z,99549.08
2019-03-16T06:50:03.137Z,99543.09
2019-03-16T06:52:35.664Z,99545.34
2019-03-16T06:55:06.576Z,99555.85
2019-03-16T06:57:39.345Z,99557.19
2019-03-16T07:00:11.443Z,99552.58
2019-03-16T07:02:46.592Z,99551.81
2019-03-16T07:05:21.915Z,99552.47
2019-03-16T07:07:51.224Z,99554.38
2019-03-16T07:10:22.005Z,99546.66
2019-03-16T07:12:57.379Z,99556.05
2019-03-16T07:15:29.950Z,99558.23
2019-03-16T07:18:00.677Z,99554.59
2019-03-16T07:20:35.278Z,99549.78
2019-03-16T07:23:08.977Z,99555.25
2019-03-16T07:25:44.519Z,99555.56
2019-03-16T07:28:18.346Z,99552.30
2019-03-16T07:30:52.814Z,99552.27
2019-03-16T07:33:23.540Z,99553.44
2019-03-16T07:35:54.217Z,99558.63
2019-03-16T07:38:31.745Z,99563.84
2019-03-16T07:41:07.461Z,99565.34
2019-03-16T07:43:38.204Z,99575.08
2019-03-16T07:46:08.968Z,99576.51
2019-03-16T07:48:39.590Z,99569.81
2019-03-16T07:51:12.946Z,99568.48
2019-03-16T07:53:43.745Z,99574.31
2019-03-16T07:56:19.686Z,99572.78
2019-03-16T07:58:56.453Z,99570.77
2019-03-16T08:01:28.739Z,99565.89
2019-03-16T08:03:59.961Z,99567.74
2019-03-16T08:06:33.924Z,99568.09
2019-03-16T08:09:05.389Z,99571.79
2019-03-16T08:11:42.836Z,99568.86
2019-03-16T08:14:13.790Z,99581.84
2019-03-16T08:16:52.478Z,99582.68
2019-03-16T08:19:23.461Z,99577.88
2019-03-16T08:21:56.928Z,99585.84
2019-03-16T08:24:34.235Z,99596.44
2019-03-16T08:27:07.838Z,99586.12
2019-03-16T08:29:41.512Z,99591.97
2019-03-16T08:32:12.620Z,99601.29
2019-03-16T08:34:47.651Z,99613.13
2019-03-16T08:37:29.605Z,99611.14
2019-03-16T08:40:03.225Z,99607.77
2019-03-16T08:42:51.272Z,99620.81
2019-03-16T08:45:27.793Z,99618.21
2019-03-16T08:48:07.171Z,99623.03
2019-03-16T08:50:51.169Z,99634.77
2019-03-16T08:53:28.887Z,99633.50
2019-03-16T08:56:03.739Z,99635.88
2019-03-16T08:58:46.759Z,99651.72
2019-03-16T09:01:34.478Z,99652.66
2019-03-16T09:04:08.737Z,99652.15
2019-03-16T09:06:59.058Z,99650.32
2019-03-16T09:09:44.828Z,99653.81
2019-03-16T09:12:17.101Z,99652.07
2019-03-16T09:14:56.385Z,99659.56
2019-03-16T09:17:35.565Z,99657.02
2019-03-16T09:20:14.649Z,99659.73
2019-03-16T09:23:04.262Z,99656.57
2019-03-16T09:25:46.409Z,99655.94
2019-03-16T09:28:22.830Z,99653.11
2019-03-16T09:31:50.497Z,99659.09
2019-03-16T09:34:14.431Z,99657.11
2019-03-16T09:37:16.499Z,99661.58
2019-03-16T09:40:33.173Z,99658.50
2019-03-16T09:43:11.015Z,99667.34
2019-03-16T09:45:48.257Z,99650.27
2019-03-16T09:48:14.857Z,99648.72
2019-03-16T09:50:46.510Z,99652.79
2019-03-16T09:53:22.110Z,99646.48
2019-03-16T09:56:17.599Z,99651.84
2019-03-16T09:58:49.158Z,99645.90
2019-03-16T10:01:27.666Z,99644.47
2019-03-16T10:04:06.848Z,99640.24
2019-03-16T10:06:50.035Z,99650.25
2019-03-16T10:09:23.227Z,99648.08
2019-03-16T10:11:56.307Z,99650.10
2019-03-16T10:15:01.264Z,99649.64
2019-03-16T10:17:25.098Z,99644.48
2019-03-16T10:20:20.524Z,99649.64
2019-03-16T10:22:53.385Z,99638.32
2019-03-16T10:25:32.569Z,99636.36
2019-03-16T10:28:10.684Z,99630.30
2019-03-16T10:30:47.771Z,99632.77
2019-03-16T10:33:23.705Z,99634.22
2019-03-16T10:35:54.852Z,99628.92
2019-03-16T10:38:28.227Z,99624.17
2019-03-16T10:41:01.347Z,99622.80
2019-03-16T10:43:48.096Z,99623.31
2019-03-16T10:46:40.138Z,99621.28
2019-03-16T10:49:14.002Z,99627.33
2019-03-16T10:51:44.925Z,99625.73
2019-03-16T10:54:28.369Z,99623.01
2019-03-16T10:57:04.571Z,99627.23
2019-03-16T10:59:41.164Z,99618.62
2019-03-16T11:02:21.987Z,99619.02
2019-03-16T11:05:05.419Z,99609.10
2019-03-16T11:07:38.821Z,99608.66
2019-03-16T11:11:26.297Z,99595.21
2019-03-16T11:14:43.191Z,99598.42
2019-03-16T11:17:21.775Z,99595.48
2019-03-16T11:20:51.846Z,99584.34
2019-03-16T11:29:46.502Z,99571.30
2019-03-16T11:32:26.885Z,99564.48
2019-03-16T11:35:02.625Z,99555.94
2019-03-16T11:37:38.329Z,99549.25
2019-03-16T11:40:19.611Z,99541.72
2019-03-16T11:42:58.645Z,99537.86
2019-03-16T11:45:30.138Z,99523.65
2019-03-16T11:48:08.878Z,99527.20
2019-03-16T11:50:43.155Z,99530.09
2019-03-16T11:53:21.936Z,99520.19
2019-03-16T11:56:00.439Z,99511.63
2019-03-16T11:58:33.539Z,99503.41
2019-03-16T12:01:10.726Z,99499.90
2019-03-16T12:03:57.958Z,99492.53
2019-03-16T12:06:28.811Z,99482.34
2019-03-16T12:09:01.713Z,99480.27
2019-03-16T12:11:33.978Z,99473.73
2019-03-16T12:14:05.890Z,99463.86
2019-03-16T12:16:52.091Z,99462.69
2019-03-16T12:19:30.549Z,99456.71
2019-03-16T12:22:02.818Z,99441.95
2019-03-16T12:24:35.150Z,99439.27
2019-03-16T12:27:05.982Z,99435.02
2019-03-16T12:29:36.870Z,99422.05
2019-03-16T12:32:10.413Z,99416.28
2019-03-16T12:34:41.259Z,99410.05
2019-03-16T12:37:12.104Z,99403.27
2019-03-16T12:39:46.416Z,99393.89
2019-03-16T12:42:18.845Z,99384.53
2019-03-16T12:44:49.916Z,99382.87
2019-03-16T12:47:20.609Z,99376.69
2019-03-16T12:49:53.568Z,99371.69
2019-03-16T12:52:26.047Z,99368.98
2019-03-16T12:55:00.499Z,99359.75
2019-03-16T12:57:34.510Z,99356.78
2019-03-16T13:00:10.526Z,99361.13
2019-03-16T13:02:44.023Z,99349.40
2019-03-16T13:05:15.094Z,99346.27
2019-03-16T13:07:51.113Z,99332.76
2019-03-16T13:10:25.805Z,99329.86
2019-03-16T13:12:57.729Z,99323.93
2019-03-16T13:15:28.705Z,99325.33
2019-03-16T13:18:15.701Z,99315.59
2019-03-16T13:20:51.406Z,99313.19
2019-03-16T13:23:48.104Z,99312.20
2019-03-16T13:26:23.495Z,99307.19
2019-03-16T13:29:05.616Z,99302.22
2019-03-16T13:31:43.839Z,99302.56
2019-03-16T13:34:14.275Z,99299.45
2019-03-16T13:37:08.407Z,99293.58
2019-03-16T13:39:46.204Z,99285.66
2019-03-16T13:42:30.664Z,99292.45
2019-03-16T13:45:38.099Z,99294.27
2019-03-16T13:48:09.049Z,99291.97
2019-03-16T13:50:47.201Z,99291.86
2019-03-16T13:53:36.977Z,99290.83
2019-03-16T13:56:09.681Z,99287.98
2019-03-16T13:59:43.052Z,99277.39
2019-03-16T14:01:30.572Z,99275.84
2019-03-16T14:04:03.177Z,99263.56
2019-03-16T14:06:37.511Z,99262.78
2019-03-16T14:09:26.894Z,99256.41
2019-03-16T14:16:06.455Z,99254.53
2019-03-16T14:19:06.605Z,99249.84
2019-03-16T14:22:02.426Z,99251.59
2019-03-16T14:24:37.960Z,99250.66
2019-03-16T14:27:33.217Z,99241.04
2019-03-16T14:30:00.501Z,99245.38
2019-03-16T14:32:40.873Z,99242.14
2019-03-16T14:35:19.219Z,99233.45
2019-03-16T14:37:53.515Z,99238.27
2019-03-16T14:40:35.403Z,99233.64
2019-03-16T14:43:11.545Z,99229.20
2019-03-16T14:45:44.775Z,99230.53
2019-03-16T14:48:27.241Z,99227.98
2019-03-16T14:51:08.066Z,99225.45
2019-03-16T14:53:43.001Z,99223.41
2019-03-16T14:56:26.793Z,99224.08
2019-03-16T14:59:00.500Z,99223.31
2019-03-16T15:01:40.347Z,99228.73
2019-03-16T15:04:20.042Z,99216.97
2019-03-16T15:06:53.539Z,99217.09
2019-03-16T15:09:27.695Z,99215.52
2019-03-16T15:12:04.123Z,99222.66
2019-03-16T15:14:51.290Z,99214.35
2019-03-16T15:17:25.304Z,99217.48
2019-03-16T15:19:59.637Z,99215.85
2019-03-16T15:22:37.605Z,99210.58
2019-03-16T15:25:11.314Z,99199.06
2019-03-16T15:27:42.515Z,99202.84
2019-03-16T15:30:19.720Z,99207.70
2019-03-16T15:36:02.993Z,99196.89
2019-03-16T15:38:35.507Z,99203.63
2019-03-16T15:41:11.173Z,99201.45
2019-03-16T15:43:51.544Z,99185.73
2019-03-16T15:46:32.277Z,99199.13
2019-03-16T15:49:08.438Z,99188.83
2019-03-16T15:51:45.776Z,99192.78
2019-03-16T15:54:23.437Z,99184.97
2019-03-16T15:56:57.379Z,99196.20
2019-03-16T15:59:28.543Z,99198.33
2019-03-16T16:01:59.500Z,99201.90
2019-03-16T16:04:32.091Z,99200.94
2019-03-16T16:07:11.612Z,99206.24
2019-03-16T16:09:51.148Z,99198.06
2019-03-16T16:12:35.155Z,99202.69
2019-03-16T16:15:13.408Z,99198.23
2019-03-16T16:17:46.559Z,99217.52
2019-03-16T16:20:22.894Z,99194.64
2019-03-16T16:22:58.604Z,99199.45
2019-03-16T16:26:07.332Z,99205.00
2019-03-16T16:28:09.898Z,99195.03
2019-03-16T16:30:41.136Z,99196.75
2019-03-16T16:33:14.024Z,99194.84
2019-03-16T16:35:48.138Z,99198.16
2019-03-16T16:38:21.306Z,99218.11
2019-03-16T16:41:00.134Z,99209.95
2019-03-16T16:43:31.616Z,99218.89
2019-03-16T16:46:07.191Z,99203.95
2019-03-16T16:48:38.115Z,99204.97
2019-03-16T16:51:09.419Z,99204.12
2019-03-16T16:53:41.819Z,99203.13
2019-03-16T16:56:42.355Z,99195.18
2019-03-16T16:59:22.811Z,99199.05
2019-03-16T17:01:53.914Z,99201.80
2019-03-16T17:04:31.550Z,99200.67
2019-03-16T17:07:10.920Z,99203.27
2019-03-16T17:09:49.508Z,99204.66
2019-03-16T17:12:29.596Z,99188.73
2019-03-16T17:15:07.906Z,99206.39
2019-03-16T17:17:45.793Z,99194.59
2019-03-16T17:20:19.598Z,99201.37
2019-03-16T17:22:58.161Z,99202.05
2019-03-16T17:28:31.161Z,99196.41
2019-03-16T17:31:25.657Z,99203.08
2019-03-16T17:37:03.749Z,99206.27
2019-03-16T17:39:40.628Z,99212.16
2019-03-16T17:46:12.722Z,99212.42
2019-03-16T17:48:31.309Z,99215.64
2019-03-16T17:51:29.675Z,99215.70
2019-03-16T17:54:27.890Z,99207.69
2019-03-16T17:57:14.227Z,99205.22
2019-03-16T18:00:08.261Z,99199.90
2019-03-16T18:02:51.237Z,99209.53
2019-03-16T18:05:59.960Z,99210.23
2019-03-16T18:12:11.956Z,99212.08
2019-03-16T18:19:03.823Z,99217.30
2019-03-16T18:21:22.315Z,99224.90
2019-03-16T18:24:40.925Z,99221.95
2019-03-16T18:27:12.206Z,99225.33
2019-03-16T18:30:07.258Z,99224.80
2019-03-16T18:32:43.249Z,99224.41
2019-03-16T18:35:40.787Z,99212.25
2019-03-16T18:38:12.787Z,99207.72
2019-03-16T18:40:46.903Z,99209.09
2019-03-16T18:43:42.657Z,99209.36
2019-03-16T18:49:37.522Z,99196.66
2019-03-16T18:52:15.044Z,99198.41
2019-03-16T18:58:17.452Z,99196.54
2019-03-16T19:00:50.318Z,99187.52
2019-03-16T19:03:41.380Z,99199.27
2019-03-16T19:06:32.447Z,99203.19
2019-03-16T19:09:59.470Z,99203.82
2019-03-16T19:12:19.646Z,99187.89
2019-03-16T19:15:25.229Z,99182.29
2019-03-16T19:18:02.195Z,99194.30
2019-03-16T19:21:47.351Z,99193.95
2019-03-16T19:24:50.802Z,99198.89
2019-03-16T19:27:29.145Z,99190.84
2019-03-16T19:30:31.476Z,99193.19
2019-03-16T19:36:59.994Z,99195.98
2019-03-16T19:39:37.896Z,99187.25
2019-03-16T19:42:54.617Z,99177.30
2019-03-16T19:45:30.809Z,99184.20
2019-03-16T19:48:07.477Z,99185.74
2019-03-16T19:50:46.873Z,99186.25
2019-03-16T19:53:34.146Z,99194.94
2019-03-16T19:56:08.846Z,99196.86
2019-03-16T19:58:39.452Z,99190.84
2019-03-16T20:01:21.384Z,99194.98
2019-03-16T20:04:02.560Z,99193.35
2019-03-16T20:06:35.841Z,99185.53
2019-03-16T20:09:14.647Z,99189.81
2019-03-16T20:11:52.747Z,99192.70
2019-03-16T20:14:38.255Z,99184.56
2019-03-16T20:18:10.837Z,99185.25
2019-03-16T20:21:17.885Z,99187.34
2019-03-16T20:24:38.060Z,99183.65
2019-03-16T20:27:49.737Z,99187.72
2019-03-16T20:31:16.310Z,99183.32
2019-03-16T20:38:35.168Z,99170.64
2019-03-16T20:45:10.535Z,99171.33
2019-03-16T20:49:00.690Z,99171.34
2019-03-16T20:51:34.667Z,99179.51
2019-03-16T20:54:09.763Z,99180.00
2019-03-16T20:57:01.482Z,99187.16
2019-03-16T20:59:39.706Z,99181.48
2019-03-16T21:02:14.288Z,99175.53
2019-03-16T21:04:46.432Z,99174.98
2019-03-16T21:07:38.200Z,99170.98
2019-03-16T21:10:27.231Z,99179.55
2019-03-16T21:13:35.809Z,99179.51
2019-03-16T21:16:03.645Z,99176.36
2019-03-16T21:18:53.523Z,99168.91
2019-03-16T21:22:35.466Z,99172.89
2019-03-16T21:27:41.893Z,99181.70
2019-03-16T21:30:26.103Z,99173.53
2019-03-16T21:33:10.298Z,99179.47
2019-03-16T21:35:49.236Z,99183.41
2019-03-16T21:39:07.056Z,99173.72
2019-03-16T21:42:04.196Z,99171.47
2019-03-16T21:53:05.502Z,99178.59
2019-03-16T21:55:37.345Z,99163.81
2019-03-16T21:58:22.834Z,99166.62
2019-03-16T22:01:11.891Z,99167.91
2019-03-16T22:03:51.122Z,99163.70
2019-03-16T22:06:34.783Z,99164.88
2019-03-16T22:09:29.379Z,99166.50
2019-03-16T22:12:04.801Z,99169.81
2019-03-16T22:14:44.915Z,99171.50
2019-03-16T22:17:42.360Z,99172.34
2019-03-16T22:20:42.004Z,99172.19
2019-03-16T22:23:31.290Z,99178.09
2019-03-16T22:26:14.737Z,99175.88
2019-03-16T22:28:57.308Z,99176.14
2019-03-16T22:31:58.091Z,99174.22
2019-03-16T22:34:32.781Z,99176.72
2019-03-16T22:37:10.777Z,99171.10
2019-03-16T22:39:52.218Z,99177.06
2019-03-16T22:42:30.849Z,99172.19
2019-03-16T22:45:19.593Z,99166.45
2019-03-16T22:47:59.767Z,99165.94
2019-03-16T22:50:37.987Z,99152.72
2019-03-16T22:53:34.239Z,99156.01
2019-03-16T22:56:10.841Z,99153.41
2019-03-16T22:58:57.671Z,99151.91
2019-03-16T23:01:39.294Z,99147.33
2019-03-16T23:04:37.711Z,99149.80
2019-03-16T23:07:46.540Z,99147.27
2019-03-16T23:10:21.498Z,99148.41
2019-03-16T23:13:07.145Z,99147.59
2019-03-16T23:15:52.271Z,99130.95
2019-03-16T23:18:30.992Z,99133.41
2019-03-16T23:21:08.961Z,99131.47
2019-03-16T23:23:46.538Z,99126.25
2019-03-16T23:26:18.354Z,99126.64
2019-03-16T23:28:55.895Z,99130.03
2019-03-16T23:31:32.914Z,99126.94
2019-03-16T23:34:18.695Z,99134.49
2019-03-16T23:36:41.994Z,99128.18
2019-03-16T23:39:12.998Z,99129.28
2019-03-16T23:41:44.144Z,99126.49
2019-03-16T23:44:18.925Z,99123.59
2019-03-16T23:46:55.654Z,99124.30
2019-03-16T23:49:30.880Z,99114.69
2019-03-16T23:52:06.927Z,99107.88
2019-03-16T23:54:37.801Z,99097.35
2019-03-16T23:57:27.108Z,99101.14
